Time,TemperatureF,DewpointF,PressureIn,WindDirection,WindDirectionDegrees,WindSpeedMPH,WindSpeedGustMPH,Humidity,HourlyPrecipIn,Conditions,Clouds,dailyrainin,SoftwareType,DateUTC
2013-08-11 00:05:00,68.3,65.9,30.07,NNW,346,0.0,0.0,92,0.00,,,0.00,Wunderground v.1.15,2013-08-11 05:05:00,
2013-08-11 00:10:00,67.9,65.5,30.07,NNW,346,0.0,0.0,92,0.00,,,0.00,Wunderground v.1.15,2013-08-11 05:10:00,
2013-08-11 00:16:00,67.8,65.4,30.07,NNW,346,0.0,0.0,92,0.00,,,0.00,Wunderground v.1.15,2013-08-11 05:16:00,
2013-08-11 00:22:00,67.8,65.7,30.07,NNW,346,0.0,0.0,93,0.00,,,0.00,Wunderground v.1.15,2013-08-11 05:22:00,
2013-08-11 00:28:00,67.6,65.5,30.07,NNW,346,0.0,0.0,93,0.00,,,0.00,Wunderground v.1.15,2013-08-11 05:28:00,
2013-08-11 00:35:00,67.6,65.5,30.07,NNW,346,0.0,0.0,93,0.00,,,0.00,Wunderground v.1.15,2013-08-11 05:35:00,
2013-08-11 00:41:00,67.3,65.2,30.07,NNW,346,0.0,0.0,93,0.00,,,0.00,Wunderground v.1.15,2013-08-11 05:41:00,
2013-08-11 00:48:00,67.1,65.0,30.07,NNW,346,0.0,0.0,93,0.00,,,0.00,Wunderground v.1.15,2013-08-11 05:48:00,
2013-08-11 00:54:00,67.1,65.0,30.07,NNW,346,0.0,0.0,93,0.00,,,0.00,Wunderground v.1.15,2013-08-11 05:54:00,
2013-08-11 01:00:00,67.3,65.5,30.07,NNW,346,0.0,0.0,94,0.00,,,0.00,Wunderground v.1.15,2013-08-11 06:00:00,
2013-08-11 01:05:00,67.3,65.5,30.07,NNW,346,0.0,0.0,94,0.00,,,0.00,Wunderground v.1.15,2013-08-11 06:05:00,
2013-08-11 01:11:00,67.3,65.5,30.07,NNW,346,0.0,0.0,94,0.00,,,0.00,Wunderground v.1.15,2013-08-11 06:11:00,
2013-08-11 01:17:00,67.3,65.5,30.07,NNW,346,0.0,0.0,94,0.00,,,0.00,Wunderground v.1.15,2013-08-11 06:17:00,
2013-08-11 01:23:00,67.3,65.5,30.07,NNW,346,0.0,0.0,94,0.00,,,0.00,Wunderground v.1.15,2013-08-11 06:23:00,
2013-08-11 01:29:00,67.4,65.6,30.07,NNW,346,0.0,0.0,94,0.00,,,0.00,Wunderground v.1.15,2013-08-11 06:29:00,
2013-08-11 01:34:00,67.6,65.8,30.07,NNW,346,0.0,0.0,94,0.00,,,0.00,Wunderground v.1.15,2013-08-11 06:34:00,
2013-08-11 01:39:00,67.6,65.8,30.07,NNW,346,0.0,0.0,94,0.00,,,0.00,Wunderground v.1.15,2013-08-11 06:39:00,
2013-08-11 01:45:00,67.8,66.0,30.07,NNW,346,0.0,0.0,94,0.00,,,0.00,Wunderground v.1.15,2013-08-11 06:45:00,
2013-08-11 01:51:00,67.6,65.8,30.06,NNW,346,0.0,0.0,94,0.00,,,0.00,Wunderground v.1.15,2013-08-11 06:51:00,
2013-08-11 01:56:00,67.6,65.8,30.06,NNW,346,0.0,0.0,94,0.00,,,0.00,Wunderground v.1.15,2013-08-11 06:56:00,
2013-08-11 02:02:00,67.6,65.8,30.06,NNW,346,0.0,0.0,94,0.00,,,0.00,Wunderground v.1.15,2013-08-11 07:02:00,
2013-08-11 02:07:00,67.4,65.6,30.06,NNW,346,0.0,0.0,94,0.00,,,0.00,Wunderground v.1.15,2013-08-11 07:07:00,
2013-08-11 02:12:00,67.3,65.5,30.06,NNW,346,0.0,0.0,94,0.00,,,0.00,Wunderground v.1.15,2013-08-11 07:12:00,
2013-08-11 02:17:00,67.3,65.8,30.06,NNW,346,0.0,0.0,95,0.00,,,0.00,Wunderground v.1.15,2013-08-11 07:17:00,
2013-08-11 02:23:00,67.1,65.6,30.05,NNW,346,0.0,0.0,95,0.00,,,0.00,Wunderground v.1.15,2013-08-11 07:23:00,
2013-08-11 02:28:00,67.1,65.6,30.05,NNW,346,0.0,0.0,95,0.00,,,0.00,Wunderground v.1.15,2013-08-11 07:28:00,
2013-08-11 02:33:00,66.9,65.4,30.05,NNW,346,0.0,0.0,95,0.00,,,0.00,Wunderground v.1.15,2013-08-11 07:33:00,
2013-08-11 02:38:00,66.9,65.4,30.05,NNW,346,0.0,0.0,95,0.00,,,0.00,Wunderground v.1.15,2013-08-11 07:38:00,
2013-08-11 02:44:00,66.8,65.3,30.05,NNW,346,0.0,0.0,95,0.00,,,0.00,Wunderground v.1.15,2013-08-11 07:44:00,
2013-08-11 02:49:00,66.8,65.3,30.05,NNW,346,0.0,0.0,95,0.00,,,0.00,Wunderground v.1.15,2013-08-11 07:49:00,
2013-08-11 02:55:00,66.8,65.3,30.05,NNW,346,0.0,0.0,95,0.00,,,0.00,Wunderground v.1.15,2013-08-11 07:55:00,
2013-08-11 03:01:00,66.8,65.3,30.05,NNW,346,0.0,0.0,95,0.00,,,0.00,Wunderground v.1.15,2013-08-11 08:01:00,
2013-08-11 03:07:00,66.6,65.1,30.05,NNW,346,0.0,0.0,95,0.00,,,0.00,Wunderground v.1.15,2013-08-11 08:07:00,
2013-08-11 03:13:00,66.4,64.9,30.05,NNW,346,0.0,0.0,95,0.00,,,0.00,Wunderground v.1.15,2013-08-11 08:13:00,
2013-08-11 03:19:00,66.6,65.1,30.05,NNW,346,0.0,0.0,95,0.00,,,0.00,Wunderground v.1.15,2013-08-11 08:19:00,
2013-08-11 03:24:00,66.6,65.1,30.05,NNW,346,0.0,0.0,95,0.00,,,0.00,Wunderground v.1.15,2013-08-11 08:24:00,
2013-08-11 03:29:00,66.6,65.1,30.05,NNW,346,0.0,0.0,95,0.00,,,0.00,Wunderground v.1.15,2013-08-11 08:29:00,
2013-08-11 03:35:00,66.4,64.9,30.05,NNW,346,0.0,0.0,95,0.00,,,0.00,Wunderground v.1.15,2013-08-11 08:35:00,
2013-08-11 03:42:00,66.4,64.9,30.05,NNW,346,0.0,0.0,95,0.00,,,0.00,Wunderground v.1.15,2013-08-11 08:42:00,
2013-08-11 03:48:00,66.6,65.1,30.05,NNW,346,0.0,0.0,95,0.00,,,0.00,Wunderground v.1.15,2013-08-11 08:48:00,
2013-08-11 03:53:00,66.8,65.3,30.05,NNW,346,0.0,0.0,95,0.00,,,0.00,Wunderground v.1.15,2013-08-11 08:53:00,
2013-08-11 03:58:00,66.8,65.3,30.05,NNW,346,0.0,0.0,95,0.00,,,0.00,Wunderground v.1.15,2013-08-11 08:58:00,
2013-08-11 04:04:00,66.9,65.4,30.05,NNW,346,0.0,0.0,95,0.00,,,0.00,Wunderground v.1.15,2013-08-11 09:04:00,
2013-08-11 04:09:00,66.9,65.7,30.05,NNW,346,0.0,0.0,96,0.00,,,0.00,Wunderground v.1.15,2013-08-11 09:09:00,
2013-08-11 04:14:00,66.9,65.4,30.05,NNW,346,0.0,0.0,95,0.00,,,0.00,Wunderground v.1.15,2013-08-11 09:14:00,
2013-08-11 04:20:00,66.9,65.4,30.05,NNW,346,0.0,0.0,95,0.00,,,0.00,Wunderground v.1.15,2013-08-11 09:20:00,
2013-08-11 04:25:00,66.8,65.3,30.05,NNW,346,0.0,0.0,95,0.00,,,0.00,Wunderground v.1.15,2013-08-11 09:25:00,
2013-08-11 04:30:00,66.8,65.6,30.05,NNW,346,0.0,0.0,96,0.00,,,0.00,Wunderground v.1.15,2013-08-11 09:30:00,
2013-08-11 04:35:00,66.8,65.6,30.05,NNW,346,0.0,0.0,96,0.00,,,0.00,Wunderground v.1.15,2013-08-11 09:35:00,
2013-08-11 04:40:00,66.8,65.6,30.05,NNW,346,0.0,0.0,96,0.00,,,0.00,Wunderground v.1.15,2013-08-11 09:40:00,
2013-08-11 04:45:00,66.8,65.6,30.05,NNW,346,0.0,0.0,96,0.00,,,0.00,Wunderground v.1.15,2013-08-11 09:45:00,
2013-08-11 04:50:00,66.8,65.6,30.05,NNW,346,0.0,0.0,96,0.00,,,0.00,Wunderground v.1.15,2013-08-11 09:50:00,
2013-08-11 04:55:00,66.8,65.6,30.05,NNW,346,0.0,0.0,96,0.00,,,0.00,Wunderground v.1.15,2013-08-11 09:55:00,
2013-08-11 05:01:00,66.8,65.6,30.05,NNW,346,0.0,0.0,96,0.00,,,0.00,Wunderground v.1.15,2013-08-11 10:01:00,
2013-08-11 05:06:00,66.8,65.6,30.05,NNW,346,0.0,0.0,96,0.00,,,0.00,Wunderground v.1.15,2013-08-11 10:06:00,
2013-08-11 05:11:00,66.8,65.6,30.05,NNW,346,0.0,0.0,96,0.00,,,0.00,Wunderground v.1.15,2013-08-11 10:11:00,
2013-08-11 05:17:00,66.8,65.6,30.05,NNW,346,0.0,0.0,96,0.00,,,0.00,Wunderground v.1.15,2013-08-11 10:17:00,
2013-08-11 05:22:00,66.9,65.7,30.05,NNW,346,0.0,0.0,96,0.00,,,0.00,Wunderground v.1.15,2013-08-11 10:22:00,
2013-08-11 05:27:00,67.1,65.9,30.05,NNW,346,0.0,0.0,96,0.00,,,0.00,Wunderground v.1.15,2013-08-11 10:27:00,
2013-08-11 05:32:00,67.3,66.1,30.05,NNW,346,0.0,0.0,96,0.00,,,0.00,Wunderground v.1.15,2013-08-11 10:32:00,
2013-08-11 05:38:00,67.6,66.4,30.05,NNW,346,0.0,0.0,96,0.00,,,0.00,Wunderground v.1.15,2013-08-11 10:38:00,
2013-08-11 05:44:00,67.8,66.6,30.05,NNW,346,0.0,0.0,96,0.00,,,0.00,Wunderground v.1.15,2013-08-11 10:44:00,
2013-08-11 05:49:00,67.9,66.7,30.05,NNW,346,0.0,0.0,96,0.00,,,0.00,Wunderground v.1.15,2013-08-11 10:49:00,
2013-08-11 05:54:00,68.1,66.9,30.05,NNW,346,0.0,0.0,96,0.00,,,0.00,Wunderground v.1.15,2013-08-11 10:54:00,
2013-08-11 05:59:00,68.1,66.9,30.05,NNW,346,0.0,0.0,96,0.00,,,0.00,Wunderground v.1.15,2013-08-11 10:59:00,
2013-08-11 06:04:00,68.3,67.1,30.05,NNW,346,0.0,0.0,96,0.00,,,0.00,Wunderground v.1.15,2013-08-11 11:04:00,
2013-08-11 06:14:00,68.3,67.1,30.05,NNW,346,0.0,0.0,96,0.00,,,0.00,Wunderground v.1.15,2013-08-11 11:14:00,
2013-08-11 06:19:00,68.1,66.9,30.05,NNW,346,0.0,0.0,96,0.00,,,0.00,Wunderground v.1.15,2013-08-11 11:19:00,
2013-08-11 06:24:00,67.9,66.7,30.05,NNW,346,0.0,0.0,96,0.00,,,0.00,Wunderground v.1.15,2013-08-11 11:24:00,
2013-08-11 06:30:00,67.8,66.6,30.05,NNW,346,0.0,0.0,96,0.00,,,0.00,Wunderground v.1.15,2013-08-11 11:30:00,
2013-08-11 06:35:00,67.8,66.6,30.05,NNW,346,0.0,0.0,96,0.00,,,0.00,Wunderground v.1.15,2013-08-11 11:35:00,
2013-08-11 06:42:00,67.6,66.4,30.05,NNW,346,0.0,0.0,96,0.00,,,0.00,Wunderground v.1.15,2013-08-11 11:42:00,
2013-08-11 06:47:00,67.6,66.4,30.05,NNW,346,0.0,0.0,96,0.00,,,0.00,Wunderground v.1.15,2013-08-11 11:47:00,
2013-08-11 06:53:00,67.4,66.2,30.05,NNW,346,0.0,0.0,96,0.00,,,0.00,Wunderground v.1.15,2013-08-11 11:53:00,
2013-08-11 06:58:00,67.4,66.2,30.05,NNW,346,0.0,0.0,96,0.00,,,0.00,Wunderground v.1.15,2013-08-11 11:58:00,
2013-08-11 07:03:00,67.4,66.2,30.05,NNW,346,0.0,0.0,96,0.00,,,0.00,Wunderground v.1.15,2013-08-11 12:03:00,
2013-08-11 07:08:00,67.4,66.2,30.05,NNW,346,0.0,0.0,96,0.00,,,0.00,Wunderground v.1.15,2013-08-11 12:08:00,
2013-08-11 07:14:00,67.6,66.4,30.05,NNW,346,0.0,0.0,96,0.00,,,0.00,Wunderground v.1.15,2013-08-11 12:14:00,
2013-08-11 07:19:00,67.6,66.4,30.06,NNW,346,0.0,0.0,96,0.00,,,0.00,Wunderground v.1.15,2013-08-11 12:19:00,
2013-08-11 07:24:00,67.8,66.6,30.06,NNW,346,0.0,0.0,96,0.00,,,0.00,Wunderground v.1.15,2013-08-11 12:24:00,
2013-08-11 07:29:00,67.9,66.7,30.06,NNW,346,0.0,0.0,96,0.00,,,0.00,Wunderground v.1.15,2013-08-11 12:29:00,
2013-08-11 07:34:00,68.1,66.9,30.06,NNW,346,0.0,0.0,96,0.00,,,0.00,Wunderground v.1.15,2013-08-11 12:34:00,
2013-08-11 07:40:00,68.3,67.1,30.06,NNW,346,0.0,0.0,96,0.00,,,0.00,Wunderground v.1.15,2013-08-11 12:40:00,
2013-08-11 07:45:00,68.3,67.1,30.06,NNW,346,0.0,0.0,96,0.00,,,0.00,Wunderground v.1.15,2013-08-11 12:45:00,
2013-08-11 07:50:00,68.6,67.4,30.07,NNW,346,0.0,0.0,96,0.00,,,0.00,Wunderground v.1.15,2013-08-11 12:50:00,
2013-08-11 07:55:00,68.8,67.6,30.07,NNW,346,0.0,0.0,96,0.00,,,0.00,Wunderground v.1.15,2013-08-11 12:55:00,
2013-08-11 08:00:00,69.3,67.8,30.07,NNW,346,0.0,0.0,95,0.00,,,0.00,Wunderground v.1.15,2013-08-11 13:00:00,
2013-08-11 08:05:00,69.4,67.9,30.07,NNW,346,0.0,0.0,95,0.00,,,0.00,Wunderground v.1.15,2013-08-11 13:05:00,
2013-08-11 08:11:00,69.8,68.3,30.07,NNW,346,0.0,0.0,95,0.00,,,0.00,Wunderground v.1.15,2013-08-11 13:11:00,
2013-08-11 08:18:00,70.4,68.9,30.07,NNW,346,0.0,0.0,95,0.00,,,0.00,Wunderground v.1.15,2013-08-11 13:18:00,
2013-08-11 08:24:00,70.6,68.8,30.07,NNW,346,0.0,0.0,94,0.00,,,0.00,Wunderground v.1.15,2013-08-11 13:24:00,
2013-08-11 08:29:00,70.6,68.5,30.07,ENE,72,0.0,0.0,93,0.00,,,0.00,Wunderground v.1.15,2013-08-11 13:29:00,
2013-08-11 08:34:00,70.9,68.8,30.07,SE,127,0.0,0.0,93,0.00,,,0.00,Wunderground v.1.15,2013-08-11 13:34:00,
2013-08-11 08:42:00,71.3,68.5,30.07,SE,140,0.0,0.0,91,0.00,,,0.00,Wunderground v.1.15,2013-08-11 13:42:00,
2013-08-11 08:49:00,71.6,68.2,30.07,SSE,153,3.0,3.0,89,0.00,,,0.00,Wunderground v.1.15,2013-08-11 13:49:00,
2013-08-11 08:54:00,71.8,67.7,30.07,SSE,168,4.0,5.0,87,0.00,,,0.00,Wunderground v.1.15,2013-08-11 13:54:00,
2013-08-11 08:59:00,72.1,68.0,30.07,South,186,0.0,2.0,87,0.00,,,0.00,Wunderground v.1.15,2013-08-11 13:59:00,
2013-08-11 09:04:00,72.5,68.1,30.07,SSE,159,0.0,5.0,86,0.00,,,0.00,Wunderground v.1.15,2013-08-11 14:04:00,
2013-08-11 09:09:00,72.8,68.4,30.07,SE,142,3.0,4.0,86,0.00,,,0.00,Wunderground v.1.15,2013-08-11 14:09:00,
2013-08-11 09:14:00,73.0,68.2,30.07,SE,145,0.0,4.0,85,0.00,,,0.00,Wunderground v.1.15,2013-08-11 14:14:00,
2013-08-11 09:21:00,73.5,68.4,30.07,SSE,151,4.0,5.0,84,0.00,,,0.00,Wunderground v.1.15,2013-08-11 14:21:00,
2013-08-11 09:26:00,74.0,68.5,30.07,SSE,152,0.0,5.0,83,0.00,,,0.00,Wunderground v.1.15,2013-08-11 14:26:00,
2013-08-11 09:32:00,74.4,68.5,30.07,SSE,154,3.0,4.0,82,0.00,,,0.00,Wunderground v.1.15,2013-08-11 14:32:00,
2013-08-11 09:37:00,74.6,68.0,30.07,South,183,4.0,4.0,80,0.00,,,0.00,Wunderground v.1.15,2013-08-11 14:37:00,
2013-08-11 09:43:00,74.7,68.1,30.07,SSW,206,6.0,8.0,80,0.00,,,0.00,Wunderground v.1.15,2013-08-11 14:43:00,
2013-08-11 09:50:00,74.7,67.8,30.07,South,186,4.0,6.0,79,0.00,,,0.00,Wunderground v.1.15,2013-08-11 14:50:00,
2013-08-11 09:55:00,75.3,69.1,30.07,NNW,343,0.0,6.0,81,0.00,,,0.00,Wunderground v.1.15,2013-08-11 14:55:00,
2013-08-11 10:00:00,76.0,69.4,30.07,South,189,0.0,3.0,80,0.00,,,0.00,Wunderground v.1.15,2013-08-11 15:00:00,
2013-08-11 10:05:00,76.1,68.7,30.07,SE,145,2.0,4.0,78,0.00,,,0.00,Wunderground v.1.15,2013-08-11 15:05:00,
2013-08-11 10:10:00,76.1,68.4,30.07,SSE,153,4.0,5.0,77,0.00,,,0.00,Wunderground v.1.15,2013-08-11 15:10:00,
2013-08-11 10:16:00,76.3,69.3,30.07,SSW,202,0.0,9.0,79,0.00,,,0.00,Wunderground v.1.15,2013-08-11 15:16:00,
2013-08-11 10:21:00,76.3,69.3,30.07,North,360,3.0,3.0,79,0.00,,,0.00,Wunderground v.1.15,2013-08-11 15:21:00,
2013-08-11 10:26:00,76.5,69.9,30.07,ENE,57,0.0,4.0,80,0.00,,,0.00,Wunderground v.1.15,2013-08-11 15:26:00,
2013-08-11 10:31:00,76.7,69.7,30.07,SSW,207,3.0,6.0,79,0.00,,,0.00,Wunderground v.1.15,2013-08-11 15:31:00,
2013-08-11 10:37:00,76.8,69.8,30.07,SSW,213,1.0,1.0,79,0.00,,,0.00,Wunderground v.1.15,2013-08-11 15:37:00,
2013-08-11 10:42:00,77.0,70.0,30.07,SE,126,0.0,5.0,79,0.00,,,0.00,Wunderground v.1.15,2013-08-11 15:42:00,
2013-08-11 10:47:00,77.6,70.2,30.07,SSE,158,0.0,1.0,78,0.00,,,0.00,Wunderground v.1.15,2013-08-11 15:47:00,
2013-08-11 10:52:00,78.3,71.2,30.07,ESE,117,0.0,3.0,79,0.00,,,0.00,Wunderground v.1.15,2013-08-11 15:52:00,
2013-08-11 10:58:00,78.6,70.4,30.07,South,184,0.0,0.0,76,0.00,,,0.00,Wunderground v.1.15,2013-08-11 15:58:00,
2013-08-11 11:03:00,78.5,70.3,30.06,South,173,1.0,4.0,76,0.00,,,0.00,Wunderground v.1.15,2013-08-11 16:03:00,
2013-08-11 11:08:00,77.9,69.7,30.06,SSE,151,2.0,3.0,76,0.00,,,0.00,Wunderground v.1.15,2013-08-11 16:08:00,
2013-08-11 11:13:00,77.9,69.7,30.06,SSE,165,0.0,10.0,76,0.00,,,0.00,Wunderground v.1.15,2013-08-11 16:13:00,
2013-08-11 11:18:00,77.6,69.4,30.06,SSE,163,0.0,3.0,76,0.00,,,0.00,Wunderground v.1.15,2013-08-11 16:18:00,
2013-08-11 11:23:00,77.0,69.2,30.06,SW,215,1.0,6.0,77,0.00,,,0.00,Wunderground v.1.15,2013-08-11 16:23:00,
2013-08-11 11:28:00,76.7,69.7,30.06,SSE,163,0.0,2.0,79,0.00,,,0.00,Wunderground v.1.15,2013-08-11 16:28:00,
2013-08-11 11:33:00,76.5,69.1,30.06,East,97,0.0,6.0,78,0.00,,,0.00,Wunderground v.1.15,2013-08-11 16:33:00,
2013-08-11 11:39:00,76.5,69.5,30.06,SSE,161,4.0,4.0,79,0.00,,,0.00,Wunderground v.1.15,2013-08-11 16:39:00,
2013-08-11 11:44:00,76.5,69.1,30.06,SSE,161,4.0,4.0,78,0.00,,,0.00,Wunderground v.1.15,2013-08-11 16:44:00,
2013-08-11 11:52:00,77.6,70.6,30.06,SSE,158,0.0,4.0,79,0.00,,,0.00,Wunderground v.1.15,2013-08-11 16:52:00,
2013-08-11 11:59:00,78.8,70.2,30.06,SSE,168,6.0,6.0,75,0.00,,,0.00,Wunderground v.1.15,2013-08-11 16:59:00,
2013-08-11 12:05:00,79.0,70.0,30.06,SSE,155,0.0,6.0,74,0.00,,,0.00,Wunderground v.1.15,2013-08-11 17:05:00,
2013-08-11 12:10:00,79.4,70.8,30.06,NW,326,0.0,6.0,75,0.00,,,0.00,Wunderground v.1.15,2013-08-11 17:10:00,
2013-08-11 12:16:00,79.4,70.8,30.06,SSE,158,6.0,6.0,75,0.00,,,0.00,Wunderground v.1.15,2013-08-11 17:16:00,
2013-08-11 12:21:00,79.6,71.8,30.05,SE,129,0.0,3.0,77,0.00,,,0.00,Wunderground v.1.15,2013-08-11 17:21:00,
2013-08-11 12:26:00,79.4,70.0,30.05,SE,146,9.0,9.0,73,0.00,,,0.00,Wunderground v.1.15,2013-08-11 17:26:00,
2013-08-11 12:32:00,79.6,71.0,30.05,SSE,151,4.0,10.0,75,0.00,,,0.00,Wunderground v.1.15,2013-08-11 17:32:00,
2013-08-11 12:37:00,80.1,71.5,30.06,South,169,0.0,1.0,75,0.00,,,0.00,Wunderground v.1.15,2013-08-11 17:37:00,
2013-08-11 12:42:00,79.9,70.9,30.06,NNW,331,0.0,6.0,74,0.00,,,0.00,Wunderground v.1.15,2013-08-11 17:42:00,
2013-08-11 12:47:00,79.9,70.9,30.06,SSW,211,0.0,1.0,74,0.00,,,0.00,Wunderground v.1.15,2013-08-11 17:47:00,
2013-08-11 12:52:00,80.1,71.1,30.06,South,170,1.0,5.0,74,0.00,,,0.00,Wunderground v.1.15,2013-08-11 17:52:00,
2013-08-11 12:58:00,80.1,70.3,30.06,SSE,165,4.0,4.0,72,0.00,,,0.00,Wunderground v.1.15,2013-08-11 17:58:00,
2013-08-11 13:03:00,79.9,70.9,30.07,SE,134,0.0,6.0,74,0.00,,,0.00,Wunderground v.1.15,2013-08-11 18:03:00,
2013-08-11 13:08:00,79.8,70.4,30.07,SSE,152,3.0,6.0,73,0.00,,,0.00,Wunderground v.1.15,2013-08-11 18:08:00,
2013-08-11 13:14:00,79.4,70.0,30.07,SE,143,3.0,6.0,73,0.00,,,0.00,Wunderground v.1.15,2013-08-11 18:14:00,
2013-08-11 13:19:00,79.0,70.4,30.07,SE,134,0.0,5.0,75,0.00,,,0.00,Wunderground v.1.15,2013-08-11 18:19:00,
2013-08-11 13:24:00,79.0,70.4,30.07,SSE,162,1.0,5.0,75,0.00,,,0.00,Wunderground v.1.15,2013-08-11 18:24:00,
2013-08-11 13:31:00,79.6,71.0,30.07,South,169,0.0,2.0,75,0.00,,,0.00,Wunderground v.1.15,2013-08-11 18:31:00,
2013-08-11 13:36:00,79.4,70.8,30.06,South,169,0.0,4.0,75,0.00,,,0.00,Wunderground v.1.15,2013-08-11 18:36:00,
2013-08-11 13:41:00,79.4,71.2,30.06,South,169,0.0,1.0,76,0.00,,,0.00,Wunderground v.1.15,2013-08-11 18:41:00,
2013-08-11 13:46:00,79.2,70.6,30.06,SE,146,0.0,4.0,75,0.00,,,0.00,Wunderground v.1.15,2013-08-11 18:46:00,
2013-08-11 13:51:00,79.0,70.0,30.06,SSE,153,0.0,3.0,74,0.00,,,0.00,Wunderground v.1.15,2013-08-11 18:51:00,
2013-08-11 13:57:00,79.2,70.6,30.06,SSE,162,0.0,1.0,75,0.00,,,0.00,Wunderground v.1.15,2013-08-11 18:57:00,
2013-08-11 14:03:00,79.4,70.8,30.06,SSE,160,0.0,1.0,75,0.00,,,0.00,Wunderground v.1.15,2013-08-11 19:03:00,
2013-08-11 14:08:00,79.6,71.0,30.06,SSE,160,0.0,0.0,75,0.00,,,0.00,Wunderground v.1.15,2013-08-11 19:08:00,
2013-08-11 14:13:00,79.8,70.8,30.06,SSE,159,0.0,4.0,74,0.00,,,0.00,Wunderground v.1.15,2013-08-11 19:13:00,
2013-08-11 14:19:00,80.7,71.6,30.05,SSE,159,0.0,1.0,74,0.00,,,0.00,Wunderground v.1.15,2013-08-11 19:19:00,
2013-08-11 14:24:00,81.4,71.1,30.05,SE,125,0.0,2.0,71,0.00,,,0.00,Wunderground v.1.15,2013-08-11 19:24:00,
2013-08-11 14:29:00,81.4,71.1,30.05,SE,125,0.0,1.0,71,0.00,,,0.00,Wunderground v.1.15,2013-08-11 19:29:00,
2013-08-11 14:35:00,80.9,70.6,30.04,South,170,0.0,5.0,71,0.00,,,0.00,Wunderground v.1.15,2013-08-11 19:35:00,
2013-08-11 14:40:00,80.9,71.4,30.04,South,170,0.0,0.0,73,0.00,,,0.00,Wunderground v.1.15,2013-08-11 19:40:00,
2013-08-11 14:46:00,80.9,72.2,30.04,South,169,0.0,3.0,75,0.00,,,0.00,Wunderground v.1.15,2013-08-11 19:46:00,
2013-08-11 14:51:00,80.9,72.2,30.03,SSE,167,3.0,3.0,75,0.00,,,0.00,Wunderground v.1.15,2013-08-11 19:51:00,
2013-08-11 14:57:00,81.1,71.2,30.03,South,169,2.0,2.0,72,0.00,,,0.00,Wunderground v.1.15,2013-08-11 19:57:00,
2013-08-11 15:02:00,81.1,72.0,30.03,SE,130,0.0,2.0,74,0.00,,,0.00,Wunderground v.1.15,2013-08-11 20:02:00,
2013-08-11 15:08:00,81.2,71.7,30.03,South,175,0.0,1.0,73,0.00,,,0.00,Wunderground v.1.15,2013-08-11 20:08:00,
2013-08-11 15:14:00,81.2,71.7,30.03,South,177,2.0,2.0,73,0.00,,,0.00,Wunderground v.1.15,2013-08-11 20:14:00,
2013-08-11 15:20:00,80.7,71.6,30.02,South,177,0.0,1.0,74,0.00,,,0.00,Wunderground v.1.15,2013-08-11 20:20:00,
2013-08-11 15:25:00,80.5,71.8,30.02,SSE,148,2.0,4.0,75,0.00,,,0.00,Wunderground v.1.15,2013-08-11 20:25:00,
2013-08-11 15:30:00,80.5,71.8,30.02,SSE,148,0.0,1.0,75,0.00,,,0.00,Wunderground v.1.15,2013-08-11 20:30:00,
2013-08-11 15:35:00,80.3,71.6,30.02,SSE,165,0.0,4.0,75,0.00,,,0.00,Wunderground v.1.15,2013-08-11 20:35:00,
2013-08-11 15:40:00,80.3,72.0,30.02,SSE,165,0.0,4.0,76,0.00,,,0.00,Wunderground v.1.15,2013-08-11 20:40:00,
2013-08-11 15:45:00,80.5,71.8,30.02,SSE,167,2.0,6.0,75,0.00,,,0.00,Wunderground v.1.15,2013-08-11 20:45:00,
2013-08-11 15:50:00,80.9,71.8,30.01,South,171,0.0,4.0,74,0.00,,,0.00,Wunderground v.1.15,2013-08-11 20:50:00,
2013-08-11 15:56:00,81.4,72.3,30.01,SE,136,1.0,4.0,74,0.00,,,0.00,Wunderground v.1.15,2013-08-11 20:56:00,
2013-08-11 16:01:00,81.6,72.1,30.01,South,169,0.0,4.0,73,0.00,,,0.00,Wunderground v.1.15,2013-08-11 21:01:00,
2013-08-11 16:08:00,81.6,71.3,30.00,SSE,149,4.0,4.0,71,0.00,,,0.00,Wunderground v.1.15,2013-08-11 21:08:00,
2013-08-11 16:13:00,82.0,72.9,30.00,ESE,116,0.0,4.0,74,0.00,,,0.00,Wunderground v.1.15,2013-08-11 21:13:00,
2013-08-11 16:18:00,82.2,72.3,30.00,South,184,5.0,5.0,72,0.00,,,0.00,Wunderground v.1.15,2013-08-11 21:18:00,
2013-08-11 16:24:00,82.4,73.3,30.00,SSE,150,0.0,5.0,74,0.00,,,0.00,Wunderground v.1.15,2013-08-11 21:24:00,
2013-08-11 16:29:00,82.0,72.1,30.00,SSE,150,1.0,1.0,72,0.00,,,0.00,Wunderground v.1.15,2013-08-11 21:29:00,
2013-08-11 16:35:00,81.6,72.1,30.00,SE,145,0.0,4.0,73,0.00,,,0.00,Wunderground v.1.15,2013-08-11 21:35:00,
2013-08-11 16:41:00,81.2,71.3,30.00,South,190,0.0,5.0,72,0.00,,,0.00,Wunderground v.1.15,2013-08-11 21:41:00,
2013-08-11 16:46:00,81.6,72.5,30.00,South,173,0.0,5.0,74,0.00,,,0.00,Wunderground v.1.15,2013-08-11 21:46:00,
2013-08-11 16:51:00,82.0,73.3,29.99,South,180,0.0,1.0,75,0.00,,,0.00,Wunderground v.1.15,2013-08-11 21:51:00,
2013-08-11 16:56:00,82.2,73.1,29.99,SSW,210,0.0,5.0,74,0.00,,,0.00,Wunderground v.1.15,2013-08-11 21:56:00,
2013-08-11 17:02:00,82.0,73.3,29.99,SE,145,7.0,7.0,75,0.00,,,0.00,Wunderground v.1.15,2013-08-11 22:02:00,
2013-08-11 17:07:00,81.8,72.3,29.99,SSE,153,5.0,5.0,73,0.00,,,0.00,Wunderground v.1.15,2013-08-11 22:07:00,
2013-08-11 17:12:00,82.0,72.9,29.99,SE,144,0.0,5.0,74,0.00,,,0.00,Wunderground v.1.15,2013-08-11 22:12:00,
2013-08-11 17:18:00,82.0,72.1,29.98,SE,142,4.0,4.0,72,0.00,,,0.00,Wunderground v.1.15,2013-08-11 22:18:00,
2013-08-11 17:23:00,82.0,72.5,29.98,SE,142,0.0,4.0,73,0.00,,,0.00,Wunderground v.1.15,2013-08-11 22:23:00,
2013-08-11 17:28:00,82.0,72.5,29.98,SE,142,0.0,1.0,73,0.00,,,0.00,Wunderground v.1.15,2013-08-11 22:28:00,
2013-08-11 17:33:00,81.8,71.9,29.98,SE,138,0.0,6.0,72,0.00,,,0.00,Wunderground v.1.15,2013-08-11 22:33:00,
2013-08-11 17:38:00,82.0,72.5,29.98,SSE,165,1.0,2.0,73,0.00,,,0.00,Wunderground v.1.15,2013-08-11 22:38:00,
2013-08-11 17:43:00,81.8,72.7,29.98,South,189,1.0,5.0,74,0.00,,,0.00,Wunderground v.1.15,2013-08-11 22:43:00,
2013-08-11 17:49:00,81.8,72.3,29.98,SSE,157,4.0,5.0,73,0.00,,,0.00,Wunderground v.1.15,2013-08-11 22:49:00,
2013-08-11 17:54:00,81.6,72.1,29.98,SSE,163,1.0,5.0,73,0.00,,,0.00,Wunderground v.1.15,2013-08-11 22:54:00,
2013-08-11 17:59:00,81.6,72.1,29.98,SSE,161,1.0,5.0,73,0.00,,,0.00,Wunderground v.1.15,2013-08-11 22:59:00,
2013-08-11 18:04:00,81.6,72.9,29.98,SSE,163,2.0,5.0,75,0.00,,,0.00,Wunderground v.1.15,2013-08-11 23:04:00,
2013-08-11 18:10:00,81.4,72.3,29.98,SSE,156,1.0,4.0,74,0.00,,,0.00,Wunderground v.1.15,2013-08-11 23:10:00,
2013-08-11 18:15:00,81.1,72.4,29.98,SE,142,2.0,6.0,75,0.00,,,0.00,Wunderground v.1.15,2013-08-11 23:15:00,
2013-08-11 18:20:00,80.7,72.8,29.98,SE,129,0.0,2.0,77,0.00,,,0.00,Wunderground v.1.15,2013-08-11 23:20:00,
2013-08-11 18:25:00,80.7,73.2,29.98,SE,131,0.0,3.0,78,0.00,,,0.00,Wunderground v.1.15,2013-08-11 23:25:00,
2013-08-11 18:30:00,80.5,72.6,29.98,SSE,157,2.0,2.0,77,0.00,,,0.00,Wunderground v.1.15,2013-08-11 23:30:00,
2013-08-11 18:36:00,80.3,72.4,29.98,SSE,153,3.0,5.0,77,0.00,,,0.00,Wunderground v.1.15,2013-08-11 23:36:00,
2013-08-11 18:41:00,80.1,72.2,29.98,SE,142,0.0,5.0,77,0.00,,,0.00,Wunderground v.1.15,2013-08-11 23:41:00,
2013-08-11 18:46:00,80.1,72.2,29.98,ESE,120,0.0,6.0,77,0.00,,,0.00,Wunderground v.1.15,2013-08-11 23:46:00,
2013-08-11 18:51:00,79.9,72.4,29.99,SSE,168,0.0,3.0,78,0.00,,,0.00,Wunderground v.1.15,2013-08-11 23:51:00,
2013-08-11 18:56:00,79.8,72.7,29.99,SSE,155,0.0,3.0,79,0.00,,,0.00,Wunderground v.1.15,2013-08-11 23:56:00,
2013-08-11 19:02:00,79.6,72.5,29.99,SE,127,2.0,4.0,79,0.00,,,0.00,Wunderground v.1.15,2013-08-12 00:02:00,
2013-08-11 19:07:00,79.4,72.3,29.99,SE,131,0.0,2.0,79,0.00,,,0.00,Wunderground v.1.15,2013-08-12 00:07:00,
2013-08-11 19:12:00,79.2,72.5,29.99,SE,131,3.0,3.0,80,0.00,,,0.00,Wunderground v.1.15,2013-08-12 00:12:00,
2013-08-11 19:17:00,79.0,72.3,29.99,SE,134,0.0,0.0,80,0.00,,,0.00,Wunderground v.1.15,2013-08-12 00:17:00,
2013-08-11 19:23:00,78.8,72.5,29.99,SSE,159,0.0,3.0,81,0.00,,,0.00,Wunderground v.1.15,2013-08-12 00:23:00,
2013-08-11 19:28:00,78.6,72.3,29.99,SSE,159,0.0,1.0,81,0.00,,,0.00,Wunderground v.1.15,2013-08-12 00:28:00,
2013-08-11 19:33:00,78.5,72.5,29.98,SSE,159,0.0,1.0,82,0.00,,,0.00,Wunderground v.1.15,2013-08-12 00:33:00,
2013-08-11 19:39:00,78.5,72.5,29.98,SSE,159,0.0,0.0,82,0.00,,,0.00,Wunderground v.1.15,2013-08-12 00:39:00,
2013-08-11 19:44:00,78.3,72.3,29.98,SSE,159,0.0,2.0,82,0.00,,,0.00,Wunderground v.1.15,2013-08-12 00:44:00,
2013-08-11 19:50:00,78.1,72.2,29.99,South,176,0.0,3.0,82,0.00,,,0.00,Wunderground v.1.15,2013-08-12 00:50:00,
2013-08-11 19:55:00,77.9,72.0,29.99,South,176,0.0,3.0,82,0.00,,,0.00,Wunderground v.1.15,2013-08-12 00:55:00,
2013-08-11 20:00:00,77.9,72.0,29.99,South,176,0.0,1.0,82,0.00,,,0.00,Wunderground v.1.15,2013-08-12 01:00:00,
2013-08-11 20:06:00,77.7,72.1,29.99,South,176,0.0,1.0,83,0.00,,,0.00,Wunderground v.1.15,2013-08-12 01:06:00,
2013-08-11 20:12:00,77.6,72.0,29.99,South,176,0.0,3.0,83,0.00,,,0.00,Wunderground v.1.15,2013-08-12 01:12:00,
2013-08-11 20:17:00,77.2,71.6,29.99,South,176,0.0,0.0,83,0.00,,,0.00,Wunderground v.1.15,2013-08-12 01:17:00,
2013-08-11 20:23:00,76.8,71.6,29.98,South,176,0.0,0.0,84,0.00,,,0.00,Wunderground v.1.15,2013-08-12 01:23:00,
2013-08-11 20:28:00,76.7,71.8,29.98,South,176,0.0,0.0,85,0.00,,,0.00,Wunderground v.1.15,2013-08-12 01:28:00,
2013-08-11 20:34:00,76.5,72.0,29.98,South,176,0.0,0.0,86,0.00,,,0.00,Wunderground v.1.15,2013-08-12 01:34:00,
2013-08-11 20:39:00,76.3,71.8,29.98,South,176,0.0,0.0,86,0.00,,,0.00,Wunderground v.1.15,2013-08-12 01:39:00,
2013-08-11 20:44:00,76.0,71.5,29.98,South,176,0.0,0.0,86,0.00,,,0.00,Wunderground v.1.15,2013-08-12 01:44:00,
2013-08-11 20:49:00,75.8,71.3,29.99,South,176,0.0,0.0,86,0.00,,,0.00,Wunderground v.1.15,2013-08-12 01:49:00,
2013-08-11 20:54:00,75.6,71.5,29.99,South,176,0.0,0.0,87,0.00,,,0.00,Wunderground v.1.15,2013-08-12 01:54:00,
2013-08-11 21:00:00,75.3,71.5,29.99,South,175,0.0,1.0,88,0.00,,,0.00,Wunderground v.1.15,2013-08-12 02:00:00,
2013-08-11 21:06:00,75.3,71.5,29.98,South,175,0.0,3.0,88,0.00,,,0.00,Wunderground v.1.15,2013-08-12 02:06:00,
2013-08-11 21:11:00,75.1,71.6,29.98,South,175,0.0,0.0,89,0.00,,,0.00,Wunderground v.1.15,2013-08-12 02:11:00,
2013-08-11 21:16:00,75.1,71.6,29.98,South,175,0.0,0.0,89,0.00,,,0.00,Wunderground v.1.15,2013-08-12 02:16:00,
2013-08-11 21:21:00,74.9,71.4,29.99,South,175,2.0,2.0,89,0.00,,,0.00,Wunderground v.1.15,2013-08-12 02:21:00,
2013-08-11 21:27:00,74.9,71.4,29.99,South,175,0.0,0.0,89,0.00,,,0.00,Wunderground v.1.15,2013-08-12 02:27:00,
2013-08-11 21:32:00,74.9,71.4,29.99,South,175,0.0,0.0,89,0.00,,,0.00,Wunderground v.1.15,2013-08-12 02:32:00,
2013-08-11 21:37:00,74.7,71.2,29.99,SSE,167,5.0,5.0,89,0.00,,,0.00,Wunderground v.1.15,2013-08-12 02:37:00,
2013-08-11 21:43:00,74.7,71.6,29.99,South,169,0.0,5.0,90,0.00,,,0.00,Wunderground v.1.15,2013-08-12 02:43:00,
2013-08-11 21:50:00,74.7,71.6,30.00,South,169,0.0,0.0,90,0.00,,,0.00,Wunderground v.1.15,2013-08-12 02:50:00,
2013-08-11 21:55:00,74.6,71.5,30.00,South,169,0.0,0.0,90,0.00,,,0.00,Wunderground v.1.15,2013-08-12 02:55:00,
2013-08-11 22:00:00,74.4,71.3,30.00,South,169,0.0,0.0,90,0.00,,,0.00,Wunderground v.1.15,2013-08-12 03:00:00,
2013-08-11 22:04:00,73.3,71.2,30.00,SSE,168,0.0,2.0,93,0.00,,,0.00,Wunderground v.1.15,2013-08-12 03:04:00,
2013-08-11 22:05:00,73.3,71.2,30.00,SSE,168,0.0,2.0,93,0.00,,,0.00,Wunderground v.1.15,2013-08-12 03:05:00,
2013-08-11 22:06:00,73.3,71.2,30.00,SSE,168,0.0,2.0,93,0.00,,,0.00,Wunderground v.1.15,2013-08-12 03:06:00,
2013-08-11 22:07:00,74.0,70.9,30.01,South,169,0.0,0.0,90,0.00,,,0.00,Wunderground v.1.15,2013-08-12 03:07:00,
2013-08-11 22:08:00,73.3,71.2,30.00,SSE,168,0.0,2.0,93,0.00,,,0.00,Wunderground v.1.15,2013-08-12 03:08:00,
2013-08-11 22:09:00,73.3,71.2,30.00,SSE,168,0.0,2.0,93,0.00,,,0.00,Wunderground v.1.15,2013-08-12 03:09:00,
2013-08-11 22:10:00,73.3,71.2,30.00,SSE,168,0.0,0.0,93,0.00,,,0.00,Wunderground v.1.15,2013-08-12 03:10:00,
2013-08-11 22:11:00,73.3,71.2,30.00,SSE,168,0.0,0.0,93,0.00,,,0.00,Wunderground v.1.15,2013-08-12 03:11:00,
2013-08-11 22:12:00,73.9,70.8,30.01,South,169,0.0,0.0,90,0.00,,,0.00,Wunderground v.1.15,2013-08-12 03:12:00,
2013-08-11 22:13:00,73.3,71.2,30.00,SSE,168,0.0,0.0,93,0.00,,,0.00,Wunderground v.1.15,2013-08-12 03:13:00,
2013-08-11 22:14:00,73.5,71.4,30.00,SSE,168,0.0,0.0,93,0.00,,,0.00,Wunderground v.1.15,2013-08-12 03:14:00,
2013-08-11 22:15:00,73.3,71.2,30.00,SSE,168,0.0,1.0,93,0.00,,,0.00,Wunderground v.1.15,2013-08-12 03:15:00,
2013-08-11 22:16:00,73.3,71.2,30.00,SSE,168,0.0,1.0,93,0.00,,,0.00,Wunderground v.1.15,2013-08-12 03:16:00,
2013-08-11 22:17:00,73.3,71.2,30.00,SSE,168,0.0,1.0,93,0.00,,,0.00,Wunderground v.1.15,2013-08-12 03:17:00,
2013-08-11 22:18:00,73.9,71.1,30.01,South,169,0.0,0.0,91,0.00,,,0.00,Wunderground v.1.15,2013-08-12 03:18:00,
2013-08-11 22:19:00,73.3,71.2,30.00,SSE,168,0.0,1.0,93,0.00,,,0.00,Wunderground v.1.15,2013-08-12 03:19:00,
2013-08-11 22:20:00,73.3,71.2,30.00,SSE,168,1.0,1.0,93,0.00,,,0.00,Wunderground v.1.15,2013-08-12 03:20:00,
2013-08-11 22:21:00,73.3,71.2,30.00,SSE,168,0.0,1.0,93,0.00,,,0.00,Wunderground v.1.15,2013-08-12 03:21:00,
2013-08-11 22:22:00,73.3,71.2,30.00,SSE,168,1.0,1.0,93,0.00,,,0.00,Wunderground v.1.15,2013-08-12 03:22:00,
2013-08-11 22:23:00,73.7,70.9,30.00,South,169,0.0,0.0,91,0.00,,,0.00,Wunderground v.1.15,2013-08-12 03:23:00,
2013-08-11 22:24:00,73.3,71.2,30.00,SSE,168,0.0,3.0,93,0.00,,,0.00,Wunderground v.1.15,2013-08-12 03:24:00,
2013-08-11 22:25:00,73.3,71.2,30.00,SSE,168,1.0,3.0,93,0.00,,,0.00,Wunderground v.1.15,2013-08-12 03:25:00,
2013-08-11 22:26:00,73.3,71.2,30.00,SSE,168,0.0,3.0,93,0.00,,,0.00,Wunderground v.1.15,2013-08-12 03:26:00,
2013-08-11 22:27:00,73.3,71.2,30.00,SSE,168,0.0,3.0,93,0.00,,,0.00,Wunderground v.1.15,2013-08-12 03:27:00,
2013-08-11 22:28:00,73.3,71.2,30.00,SSE,168,1.0,3.0,93,0.00,,,0.00,Wunderground v.1.15,2013-08-12 03:28:00,
2013-08-11 22:29:00,73.5,70.7,30.00,South,169,0.0,0.0,91,0.00,,,0.00,Wunderground v.1.15,2013-08-12 03:29:00,
2013-08-11 22:30:00,73.3,71.2,30.00,SSE,168,0.0,0.0,93,0.00,,,0.00,Wunderground v.1.15,2013-08-12 03:30:00,
2013-08-11 22:32:00,73.3,71.2,30.00,SSE,168,1.0,1.0,93,0.00,,,0.00,Wunderground v.1.15,2013-08-12 03:32:00,
2013-08-11 22:34:00,73.3,70.5,30.00,South,169,0.0,0.0,91,0.00,,,0.00,Wunderground v.1.15,2013-08-12 03:34:00,
2013-08-11 22:35:00,73.3,71.2,30.00,SSE,168,0.0,1.0,93,0.00,,,0.00,Wunderground v.1.15,2013-08-12 03:35:00,
2013-08-11 22:36:00,73.3,71.2,30.00,SSE,168,0.0,1.0,93,0.00,,,0.00,Wunderground v.1.15,2013-08-12 03:36:00,
2013-08-11 22:37:00,73.3,71.2,30.00,SSE,168,0.0,1.0,93,0.00,,,0.00,Wunderground v.1.15,2013-08-12 03:37:00,
2013-08-11 22:38:00,73.3,71.2,30.00,SSE,168,0.0,1.0,93,0.00,,,0.00,Wunderground v.1.15,2013-08-12 03:38:00,
2013-08-11 22:39:00,73.3,70.8,30.00,South,169,0.0,0.0,92,0.00,,,0.00,Wunderground v.1.15,2013-08-12 03:39:00,
2013-08-11 22:42:00,73.3,71.2,30.00,SSE,168,0.0,0.0,93,0.00,,,0.00,Wunderground v.1.15,2013-08-12 03:42:00,
2013-08-11 22:45:00,73.3,70.8,30.00,South,169,0.0,0.0,92,0.00,,,0.00,Wunderground v.1.15,2013-08-12 03:45:00,
2013-08-11 22:50:00,73.5,71.0,30.00,South,169,0.0,0.0,92,0.00,,,0.00,Wunderground v.1.15,2013-08-12 03:50:00,
2013-08-11 22:56:00,73.3,71.2,30.00,South,169,0.0,0.0,93,0.00,,,0.00,Wunderground v.1.15,2013-08-12 03:56:00,
2013-08-11 23:22:00,73.3,71.2,30.00,SSE,168,1.0,3.0,93,0.00,,,0.00,Wunderground v.1.15,2013-08-12 04:22:00,
2013-08-11 23:27:00,73.3,71.2,30.00,SSE,168,0.0,0.0,93,0.00,,,0.00,Wunderground v.1.15,2013-08-12 04:27:00,
2013-08-11 23:33:00,73.3,71.2,30.00,SSE,168,0.0,1.0,93,0.00,,,0.00,Wunderground v.1.15,2013-08-12 04:33:00,
2013-08-11 23:38:00,73.3,71.2,30.00,SSE,168,0.0,0.0,93,0.00,,,0.00,Wunderground v.1.15,2013-08-12 04:38:00,
2013-08-11 23:43:00,73.3,71.5,30.00,SSE,168,0.0,0.0,94,0.00,,,0.00,Wunderground v.1.15,2013-08-12 04:43:00,
2013-08-11 23:48:00,73.2,71.4,30.00,SSE,168,0.0,0.0,94,0.00,,,0.00,Wunderground v.1.15,2013-08-12 04:48:00,
2013-08-11 23:53:00,73.2,71.4,30.00,SSE,168,0.0,0.0,94,0.00,,,0.00,Wunderground v.1.15,2013-08-12 04:53:00,
2013-08-11 23:59:00,73.2,71.4,30.00,SSE,168,0.0,0.0,94,0.00,,,0.00,Wunderground v.1.15,2013-08-12 04:59:00,